createdAt,value
2018-03-14T00:01:38.683Z,5.03
2018-03-14T00:04:06.151Z,3.20
2018-03-14T00:06:33.586Z,5.77
2018-03-14T00:09:01.064Z,4.13
2018-03-14T00:11:28.490Z,3.90
2018-03-14T00:13:55.921Z,5.13
2018-03-14T00:16:24.164Z,4.60
2018-03-14T00:18:51.595Z,4.43
2018-03-14T00:21:19.069Z,3.47
2018-03-14T00:23:46.501Z,5.70
2018-03-14T00:26:13.954Z,3.70
2018-03-14T00:28:41.435Z,2.70
2018-03-14T00:31:08.909Z,4.10
2018-03-14T00:33:36.339Z,3.50
2018-03-14T00:36:04.280Z,5.67
2018-03-14T00:38:31.781Z,4.10
2018-03-14T00:40:59.237Z,3.33
2018-03-14T00:43:26.704Z,3.83
2018-03-14T00:45:54.247Z,3.10
2018-03-14T00:48:21.683Z,2.87
2018-03-14T00:50:49.163Z,3.20
2018-03-14T00:53:16.675Z,2.37
2018-03-14T00:55:44.127Z,2.30
2018-03-14T00:58:12.331Z,2.90
2018-03-14T01:00:39.809Z,2.57
2018-03-14T01:03:07.240Z,2.20
2018-03-14T01:05:34.724Z,2.00
2018-03-14T01:08:02.191Z,2.83
2018-03-14T01:10:29.632Z,4.33
2018-03-14T01:12:57.091Z,2.37
2018-03-14T01:15:24.528Z,2.93
2018-03-14T01:17:51.967Z,4.27
2018-03-14T01:20:20.180Z,2.50
2018-03-14T01:22:47.619Z,4.17
2018-03-14T01:25:15.052Z,2.77
2018-03-14T01:27:42.508Z,2.77
2018-03-14T01:30:10.008Z,2.80
2018-03-14T01:32:37.444Z,2.50
2018-03-14T01:35:04.870Z,2.37
2018-03-14T01:37:33.104Z,2.30
2018-03-14T01:40:00.561Z,2.73
2018-03-14T01:42:28.009Z,2.63
2018-03-14T01:44:55.480Z,2.77
2018-03-14T01:47:22.911Z,2.30
2018-03-14T01:49:50.384Z,3.80
2018-03-14T01:52:17.839Z,7.13
2018-03-14T01:54:45.301Z,3.60
2018-03-14T01:57:12.732Z,2.80
2018-03-14T01:59:40.172Z,1.90
2018-03-14T02:02:07.675Z,1.97
2018-03-14T02:04:35.226Z,2.77
2018-03-14T02:07:02.682Z,1.50
2018-03-14T02:09:30.115Z,2.10
2018-03-14T02:11:57.540Z,1.87
2018-03-14T02:14:25.776Z,2.13
2018-03-14T02:16:53.201Z,2.13
2018-03-14T02:19:20.684Z,1.80
2018-03-14T02:21:48.121Z,2.20
2018-03-14T02:24:15.601Z,2.20
2018-03-14T02:26:43.043Z,2.40
2018-03-14T02:29:10.507Z,2.53
2018-03-14T02:31:37.953Z,2.87
2018-03-14T02:34:05.419Z,2.30
2018-03-14T02:36:44.692Z,2.20
2018-03-14T02:39:12.120Z,2.20
2018-03-14T02:41:39.588Z,1.80
2018-03-14T02:44:07.128Z,1.93
2018-03-14T02:46:34.584Z,1.97
2018-03-14T02:49:02.014Z,1.80
2018-03-14T02:51:29.444Z,2.47
2018-03-14T02:53:58.504Z,4.77
2018-03-14T02:56:25.948Z,2.20
2018-03-14T02:58:53.391Z,2.17
2018-03-14T03:01:20.826Z,2.13
2018-03-14T03:03:48.316Z,1.80
2018-03-14T03:06:15.748Z,2.77
2018-03-14T03:08:43.196Z,1.70
2018-03-14T03:11:10.629Z,2.93
2018-03-14T03:13:38.823Z,2.00
2018-03-14T03:16:06.312Z,2.87
2018-03-14T03:18:33.753Z,7.40
2018-03-14T03:21:01.194Z,5.10
2018-03-14T03:23:28.699Z,3.97
2018-03-14T03:25:56.147Z,2.37
2018-03-14T03:28:23.604Z,2.20
2018-03-14T03:30:51.058Z,3.20
2018-03-14T03:33:18.504Z,3.90
2018-03-14T03:35:45.952Z,2.77
2018-03-14T03:38:13.431Z,3.43
2018-03-14T03:40:40.888Z,2.63
2018-03-14T03:43:08.327Z,2.47
2018-03-14T03:45:35.759Z,2.93
2018-03-14T03:48:03.364Z,3.07
2018-03-14T03:50:30.807Z,4.10
2018-03-14T03:52:58.275Z,2.63
2018-03-14T03:55:25.718Z,4.10
2018-03-14T03:57:53.220Z,3.77
2018-03-14T04:00:20.747Z,5.40
2018-03-14T04:02:48.207Z,3.77
2018-03-14T04:05:15.639Z,6.20
2018-03-14T04:07:43.090Z,8.70
2018-03-14T04:10:10.579Z,6.47
2018-03-14T04:12:38.023Z,7.90
2018-03-14T04:15:05.471Z,14.17
2018-03-14T04:17:32.900Z,9.10
2018-03-14T04:20:01.121Z,7.93
2018-03-14T04:22:28.572Z,9.20
2018-03-14T04:24:56.039Z,10.23
2018-03-14T04:27:23.459Z,6.07
2018-03-14T04:29:51.354Z,5.70
2018-03-14T04:32:18.815Z,6.10
2018-03-14T04:34:46.245Z,5.83
2018-03-14T04:37:13.728Z,7.40
2018-03-14T04:39:41.183Z,9.60
2018-03-14T04:42:08.616Z,4.60
2018-03-14T04:44:36.036Z,6.33
2018-03-14T04:47:04.243Z,7.37
2018-03-14T04:49:31.668Z,4.07
2018-03-14T04:51:59.873Z,4.67
2018-03-14T04:54:27.324Z,4.43
2018-03-14T04:56:54.748Z,5.93
2018-03-14T04:59:22.180Z,4.43
2018-03-14T05:01:49.736Z,6.00
2018-03-14T05:04:17.288Z,8.60
2018-03-14T05:06:44.751Z,14.20
2018-03-14T05:09:12.179Z,9.40
2018-03-14T05:11:39.659Z,8.83
2018-03-14T05:14:07.112Z,8.27
2018-03-14T05:16:34.551Z,7.77
2018-03-14T05:19:01.981Z,8.53
2018-03-14T05:21:30.196Z,10.77
2018-03-14T05:23:57.636Z,6.77
2018-03-14T05:26:25.132Z,8.37
2018-03-14T05:28:52.551Z,8.97
2018-03-14T05:31:19.983Z,7.53
2018-03-14T05:33:48.187Z,5.63
2018-03-14T05:36:15.620Z,6.47
2018-03-14T05:38:43.076Z,9.33
2018-03-14T05:41:11.288Z,7.03
2018-03-14T05:43:38.724Z,9.00
2018-03-14T05:46:06.171Z,7.03
2018-03-14T05:48:33.664Z,6.53
2018-03-14T05:51:01.119Z,7.47
2018-03-14T05:53:28.579Z,6.27
2018-03-14T05:55:56.120Z,6.73
2018-03-14T05:58:23.555Z,9.23
2018-03-14T06:00:51.051Z,5.23
2018-03-14T06:03:18.495Z,5.40
2018-03-14T06:05:45.920Z,9.73
2018-03-14T06:08:13.425Z,3.80
2018-03-14T06:10:40.871Z,4.53
2018-03-14T06:13:08.332Z,5.10
2018-03-14T06:15:35.765Z,4.80
2018-03-14T06:18:03.252Z,4.20
2018-03-14T06:20:30.805Z,4.00
2018-03-14T06:22:58.227Z,5.40
2018-03-14T06:25:25.720Z,5.00
2018-03-14T06:27:53.152Z,5.23
2018-03-14T06:30:20.627Z,6.20
2018-03-14T06:32:48.087Z,5.97
2018-03-14T06:35:15.524Z,4.33
2018-03-14T06:37:44.558Z,2.53
2018-03-14T06:40:11.995Z,2.57
2018-03-14T06:42:39.429Z,3.43
2018-03-14T06:45:07.375Z,2.67
2018-03-14T06:47:35.568Z,2.97
2018-03-14T06:50:03.013Z,3.37
2018-03-14T06:52:30.508Z,3.20
2018-03-14T06:54:57.948Z,9.80
2018-03-14T06:57:25.390Z,3.90
2018-03-14T07:00:04.904Z,4.17
2018-03-14T07:02:42.151Z,6.50
2018-03-14T07:05:22.920Z,7.43
2018-03-14T07:07:50.355Z,5.60
2018-03-14T07:10:17.780Z,6.40
2018-03-14T07:12:45.983Z,8.70
2018-03-14T07:15:13.464Z,4.40
2018-03-14T07:17:40.899Z,6.80
2018-03-14T07:20:08.333Z,6.67
2018-03-14T07:22:36.560Z,6.97
2018-03-14T07:25:04.000Z,5.70
2018-03-14T07:27:31.439Z,7.50
2018-03-14T07:29:58.932Z,7.90
2018-03-14T07:32:26.380Z,4.90
2018-03-14T07:34:53.865Z,6.83
2018-03-14T07:37:21.295Z,7.30
2018-03-14T07:39:48.735Z,7.00
2018-03-14T07:42:16.204Z,5.63
2018-03-14T07:44:43.656Z,6.30
2018-03-14T07:47:11.119Z,7.50
2018-03-14T07:49:38.587Z,7.20
2018-03-14T07:52:06.012Z,7.43
2018-03-14T07:54:33.466Z,5.67
2018-03-14T07:57:00.883Z,5.93
2018-03-14T07:59:29.083Z,8.13
2018-03-14T08:01:56.578Z,6.70
2018-03-14T08:04:24.037Z,10.73
2018-03-14T08:06:51.479Z,8.77
2018-03-14T08:09:18.960Z,7.37
2018-03-14T08:11:46.387Z,9.43
2018-03-14T08:14:13.808Z,6.30
2018-03-14T08:16:42.032Z,12.97
2018-03-14T08:19:09.513Z,12.47
2018-03-14T08:21:36.947Z,10.40
2018-03-14T08:24:04.384Z,10.50
2018-03-14T08:26:31.878Z,11.37
2018-03-14T08:28:59.336Z,12.47
2018-03-14T08:31:26.885Z,12.57
2018-03-14T08:33:54.544Z,11.07
2018-03-14T08:36:21.995Z,11.40
2018-03-14T08:38:49.452Z,15.00
2018-03-14T08:41:16.885Z,12.50
2018-03-14T08:43:44.375Z,14.40
2018-03-14T08:46:12.036Z,12.97
2018-03-14T08:48:39.467Z,18.33
2018-03-14T08:51:06.948Z,13.10
2018-03-14T08:53:34.402Z,11.77
2018-03-14T08:56:01.856Z,13.00
2018-03-14T08:58:29.312Z,14.07
2018-03-14T09:00:56.752Z,14.00
2018-03-14T09:03:24.196Z,19.53
2018-03-14T09:05:51.684Z,19.70
2018-03-14T09:08:19.120Z,15.13
2018-03-14T09:10:46.591Z,13.57
2018-03-14T09:13:14.160Z,12.40
2018-03-14T09:15:41.611Z,13.20
2018-03-14T09:18:09.068Z,11.37
2018-03-14T09:20:36.524Z,14.97
2018-03-14T09:23:03.979Z,11.47
2018-03-14T09:25:31.429Z,11.60
2018-03-14T09:27:58.896Z,11.93
2018-03-14T09:30:26.338Z,11.37
2018-03-14T09:32:53.771Z,11.30
2018-03-14T09:35:21.202Z,13.20
2018-03-14T09:37:49.400Z,11.93
2018-03-14T09:40:16.895Z,11.20
2018-03-14T09:42:44.358Z,12.13
2018-03-14T09:45:11.808Z,11.90
2018-03-14T09:47:39.271Z,8.80
2018-03-14T09:50:06.704Z,9.70
2018-03-14T09:52:34.131Z,12.10
2018-03-14T09:55:02.343Z,8.23
2018-03-14T09:57:29.924Z,9.93
2018-03-14T09:59:57.475Z,8.27
2018-03-14T10:02:24.927Z,6.77
2018-03-14T10:04:52.383Z,5.07
2018-03-14T10:07:19.899Z,5.00
2018-03-14T10:09:48.120Z,6.13
2018-03-14T10:12:15.562Z,5.40
2018-03-14T10:14:42.997Z,6.10
2018-03-14T10:17:10.488Z,7.70
2018-03-14T10:19:37.943Z,5.80
2018-03-14T10:22:05.404Z,5.83
2018-03-14T10:24:33.476Z,6.07
2018-03-14T10:27:00.909Z,8.37
2018-03-14T10:29:28.362Z,7.90
2018-03-14T10:31:55.795Z,7.07
2018-03-14T10:34:23.992Z,8.77
2018-03-14T10:36:51.441Z,11.47
2018-03-14T10:39:18.934Z,7.93
2018-03-14T10:41:46.495Z,7.80
2018-03-14T10:44:13.947Z,10.03
2018-03-14T10:46:41.381Z,11.07
2018-03-14T10:49:08.869Z,9.67
2018-03-14T10:51:36.324Z,11.50
2018-03-14T10:54:04.484Z,10.57
2018-03-14T10:56:31.925Z,9.57
2018-03-14T10:58:59.407Z,8.03
2018-03-14T11:01:26.840Z,9.47
2018-03-14T11:03:54.323Z,8.93
2018-03-14T11:06:21.768Z,10.40
2018-03-14T11:08:49.252Z,10.30
2018-03-14T11:11:16.692Z,7.53
2018-03-14T11:13:44.145Z,11.13
2018-03-14T11:16:11.584Z,10.03
2018-03-14T11:18:39.064Z,9.27
2018-03-14T11:21:06.536Z,8.50
2018-03-14T11:23:34.101Z,9.07
2018-03-14T11:26:01.941Z,9.63
2018-03-14T11:28:29.376Z,9.50
2018-03-14T11:30:56.867Z,12.73
2018-03-14T11:33:24.379Z,11.53
2018-03-14T11:35:51.874Z,10.60
2018-03-14T11:38:19.319Z,10.57
2018-03-14T11:40:46.788Z,7.47
2018-03-14T11:43:14.231Z,12.07
2018-03-14T11:45:41.696Z,10.97
2018-03-14T11:48:09.169Z,9.10
2018-03-14T11:50:36.616Z,9.07
2018-03-14T11:53:04.059Z,8.37
2018-03-14T11:55:31.495Z,12.97
2018-03-14T11:57:58.950Z,10.03
2018-03-14T12:00:26.412Z,11.30
2018-03-14T12:02:53.844Z,11.00
2018-03-14T12:05:22.067Z,9.20
2018-03-14T12:07:49.504Z,11.83
2018-03-14T12:10:16.976Z,10.60
2018-03-14T12:12:44.408Z,7.83
2018-03-14T12:15:11.930Z,9.27
2018-03-14T12:17:39.678Z,9.00
2018-03-14T12:20:07.120Z,11.27
2018-03-14T12:22:34.555Z,11.40
2018-03-14T12:25:01.993Z,10.03
2018-03-14T12:27:29.439Z,9.43
2018-03-14T12:29:57.672Z,8.50
2018-03-14T12:32:25.100Z,7.90
2018-03-14T12:34:52.539Z,13.93
2018-03-14T12:37:20.011Z,12.37
2018-03-14T12:39:47.448Z,9.10
2018-03-14T12:42:14.939Z,8.33
2018-03-14T12:44:43.124Z,9.80
2018-03-14T12:47:10.554Z,13.93
2018-03-14T12:49:38.014Z,8.40
2018-03-14T12:52:05.505Z,7.57
2018-03-14T12:54:32.939Z,7.33
2018-03-14T12:57:00.383Z,6.63
2018-03-14T12:59:27.812Z,9.63
2018-03-14T13:01:56.038Z,8.10
2018-03-14T13:04:23.472Z,8.83
2018-03-14T13:06:50.923Z,8.70
2018-03-14T13:09:18.408Z,9.47
2018-03-14T13:11:45.853Z,7.27
2018-03-14T13:14:13.319Z,8.90
2018-03-14T13:16:40.753Z,7.10
2018-03-14T13:19:08.216Z,20.60
2018-03-14T13:21:35.694Z,11.70
2018-03-14T13:24:03.148Z,8.80
2018-03-14T13:26:30.620Z,11.90
2018-03-14T13:28:58.051Z,6.60
2018-03-14T13:31:25.520Z,6.90
2018-03-14T13:33:52.956Z,7.17
2018-03-14T13:36:20.439Z,8.53
2018-03-14T13:38:47.900Z,7.00
2018-03-14T13:41:15.460Z,8.40
2018-03-14T13:43:42.901Z,9.83
2018-03-14T13:46:10.327Z,9.93
2018-03-14T13:48:37.760Z,12.17
2018-03-14T13:51:05.968Z,9.20
2018-03-14T13:53:33.447Z,7.80
2018-03-14T13:56:01.004Z,12.33
2018-03-14T13:58:28.437Z,10.20
2018-03-14T14:00:55.876Z,10.53
2018-03-14T14:03:24.088Z,8.30
2018-03-14T14:05:52.446Z,7.87
2018-03-14T14:08:19.884Z,12.50
2018-03-14T14:10:48.080Z,12.30
2018-03-14T14:13:15.564Z,16.80
2018-03-14T14:15:43.007Z,18.20
2018-03-14T14:18:10.447Z,17.10
2018-03-14T14:20:38.338Z,17.20
2018-03-14T14:23:05.774Z,16.87
2018-03-14T14:25:33.812Z,16.33
2018-03-14T14:28:01.328Z,13.03
2018-03-14T14:30:28.798Z,19.53
2018-03-14T14:32:56.205Z,13.93
2018-03-14T14:35:23.640Z,16.70
2018-03-14T14:37:51.871Z,15.17
2018-03-14T14:40:19.333Z,14.87
2018-03-14T14:42:47.228Z,15.90
2018-03-14T14:45:14.663Z,17.37
2018-03-14T14:47:42.212Z,19.67
2018-03-14T14:50:09.651Z,15.17
2018-03-14T14:52:37.124Z,18.13
2018-03-14T14:55:04.584Z,18.07
2018-03-14T14:57:32.044Z,23.10
2018-03-14T14:59:59.492Z,13.80
2018-03-14T15:02:26.959Z,20.00
2018-03-14T15:04:54.731Z,19.30
2018-03-14T15:07:22.176Z,24.20
2018-03-14T15:09:49.631Z,15.00
2018-03-14T15:12:17.077Z,20.70
2018-03-14T15:14:44.555Z,17.57
2018-03-14T15:17:12.014Z,19.07
2018-03-14T15:19:39.436Z,16.97
2018-03-14T15:22:06.868Z,15.97
2018-03-14T15:24:35.072Z,18.27
2018-03-14T15:27:02.552Z,20.40
2018-03-14T15:29:30.005Z,18.93
2018-03-14T15:31:57.464Z,16.37
2018-03-14T15:34:25.022Z,17.97
2018-03-14T15:36:52.459Z,23.37
2018-03-14T15:39:19.932Z,17.50
2018-03-14T15:41:47.387Z,16.87
2018-03-14T15:44:14.947Z,19.67
2018-03-14T15:46:42.423Z,15.67
2018-03-14T15:49:09.852Z,15.67
2018-03-14T15:51:37.418Z,21.80
2018-03-14T15:54:04.875Z,16.33
2018-03-14T15:56:33.253Z,19.10
2018-03-14T15:59:00.695Z,23.07
2018-03-14T16:01:28.167Z,18.17
2018-03-14T16:03:55.610Z,17.47
2018-03-14T16:06:23.083Z,15.83
2018-03-14T16:08:50.516Z,16.77
2018-03-14T16:11:17.968Z,18.77
2018-03-14T16:13:45.410Z,21.97
2018-03-14T16:16:12.843Z,17.23
2018-03-14T16:18:41.061Z,17.37
2018-03-14T16:21:08.540Z,22.37
2018-03-14T16:23:36.107Z,16.40
2018-03-14T16:26:03.564Z,13.73
2018-03-14T16:28:31.116Z,19.80
2018-03-14T16:30:58.561Z,16.53
2018-03-14T16:33:26.140Z,15.90
2018-03-14T16:35:53.579Z,14.93
2018-03-14T16:38:21.049Z,13.80
2018-03-14T16:40:48.607Z,15.57
2018-03-14T16:43:16.047Z,16.27
2018-03-14T16:45:43.496Z,14.73
2018-03-14T16:48:10.928Z,16.97
2018-03-14T16:50:38.430Z,14.57
2018-03-14T16:53:07.701Z,23.20
2018-03-14T16:55:35.997Z,19.90
2018-03-14T16:58:03.431Z,16.00
2018-03-14T17:00:30.875Z,16.80
2018-03-14T17:02:58.319Z,16.20
2018-03-14T17:05:26.533Z,16.40
2018-03-14T17:07:54.008Z,19.97
2018-03-14T17:10:21.463Z,16.90
2018-03-14T17:12:48.928Z,14.40
2018-03-14T17:15:16.375Z,17.37
2018-03-14T17:17:43.840Z,15.87
2018-03-14T17:20:11.395Z,14.33
2018-03-14T17:22:38.851Z,26.10
2018-03-14T17:25:06.287Z,19.20
2018-03-14T17:27:33.988Z,16.20
2018-03-14T17:30:01.428Z,15.37
2018-03-14T17:32:28.885Z,17.53
2018-03-14T17:34:56.340Z,14.50
2018-03-14T17:37:23.803Z,16.07
2018-03-14T17:39:51.662Z,14.43
2018-03-14T17:42:19.140Z,20.67
2018-03-14T17:44:46.583Z,17.03
2018-03-14T17:47:14.016Z,16.40
2018-03-14T17:49:41.507Z,11.60
2018-03-14T17:52:09.056Z,15.33
2018-03-14T17:54:36.613Z,14.03
2018-03-14T17:57:04.043Z,14.73
2018-03-14T17:59:31.500Z,15.63
2018-03-14T18:01:58.947Z,13.40
2018-03-14T18:04:26.390Z,17.53
2018-03-14T18:06:54.593Z,16.03
2018-03-14T18:09:24.753Z,11.53
2018-03-14T18:11:52.246Z,10.27
2018-03-14T18:14:19.712Z,12.83
2018-03-14T18:16:47.168Z,14.80
2018-03-14T18:19:15.370Z,12.07
2018-03-14T18:21:42.803Z,14.50
2018-03-14T18:24:10.248Z,15.70
2018-03-14T18:26:37.692Z,13.83
2018-03-14T18:29:05.899Z,12.23
2018-03-14T18:31:33.337Z,11.40
2018-03-14T18:34:00.775Z,13.53
2018-03-14T18:36:29.000Z,14.57
2018-03-14T18:38:56.444Z,17.80
2018-03-14T18:41:23.893Z,15.30
2018-03-14T18:43:51.353Z,12.70
2018-03-14T18:46:18.801Z,11.50
2018-03-14T18:48:46.263Z,23.27
2018-03-14T18:51:13.704Z,30.80
2018-03-14T18:53:41.154Z,12.23
2018-03-14T18:56:09.366Z,12.23
2018-03-14T18:58:36.837Z,10.03
2018-03-14T19:01:04.290Z,7.00
2018-03-14T19:03:31.703Z,8.50
2018-03-14T19:06:01.405Z,11.93
2018-03-14T19:08:29.616Z,12.70
2018-03-14T19:10:57.073Z,8.60
2018-03-14T19:13:24.495Z,7.83
2018-03-14T19:15:52.819Z,9.53
2018-03-14T19:18:20.292Z,9.40
2018-03-14T19:20:47.736Z,10.53
2018-03-14T19:23:15.171Z,10.97
2018-03-14T19:25:42.605Z,14.87
2018-03-14T19:28:10.108Z,11.43
2018-03-14T19:30:37.528Z,13.30
2018-03-14T19:33:04.973Z,10.10
2018-03-14T19:35:33.167Z,9.40
2018-03-14T19:38:00.670Z,14.03
2018-03-14T19:40:28.133Z,15.57
2018-03-14T19:42:55.572Z,9.30
2018-03-14T19:45:23.033Z,10.80
2018-03-14T19:47:50.468Z,10.00
2018-03-14T19:50:17.913Z,8.43
2018-03-14T19:52:45.408Z,10.37
2018-03-14T19:55:12.840Z,10.53
2018-03-14T19:57:40.311Z,11.47
2018-03-14T20:00:07.802Z,11.00
2018-03-14T20:05:18.859Z,10.93
2018-03-14T20:07:46.311Z,9.03
2018-03-14T20:10:13.808Z,16.40
2018-03-14T20:12:41.240Z,14.20
2018-03-14T20:15:08.698Z,13.10
2018-03-14T20:17:36.199Z,17.00
2018-03-14T20:20:03.792Z,14.67
2018-03-14T20:22:31.257Z,11.70
2018-03-14T20:24:58.924Z,11.90
2018-03-14T20:27:26.351Z,12.07
2018-03-14T20:29:53.824Z,15.27
2018-03-14T20:32:21.266Z,11.70
2018-03-14T20:34:48.701Z,10.23
2018-03-14T20:37:16.160Z,11.40
2018-03-14T20:39:43.609Z,11.50
2018-03-14T20:42:11.840Z,9.27
2018-03-14T20:44:39.304Z,10.80
2018-03-14T20:47:06.744Z,13.17
2018-03-14T20:49:34.191Z,12.73
2018-03-14T20:52:01.627Z,21.50
2018-03-14T20:54:29.061Z,11.33
2018-03-14T20:56:57.251Z,12.27
2018-03-14T20:59:24.717Z,64.83
2018-03-14T21:01:52.155Z,24.80
2018-03-14T21:04:20.363Z,14.85
2018-03-14T21:06:47.794Z,18.43
2018-03-14T21:09:15.243Z,15.90
2018-03-14T21:11:43.460Z,10.13
2018-03-14T21:14:10.896Z,10.70
2018-03-14T21:16:38.384Z,11.97
2018-03-14T21:19:05.823Z,15.13
2018-03-14T21:21:33.247Z,17.50
2018-03-14T21:24:00.687Z,24.70
2018-03-14T21:26:28.903Z,22.60
2018-03-14T21:28:56.338Z,19.57
2018-03-14T21:31:23.969Z,18.13
2018-03-14T21:33:51.400Z,17.40
2018-03-14T21:36:18.835Z,13.40
2018-03-14T21:38:46.267Z,12.80
2018-03-14T21:41:14.494Z,15.73
2018-03-14T21:43:41.939Z,16.83
2018-03-14T21:46:09.372Z,17.43
2018-03-14T21:48:36.856Z,15.70
2018-03-14T21:51:04.379Z,14.43
2018-03-14T21:53:31.776Z,30.47
2018-03-14T21:55:59.224Z,17.03
2018-03-14T21:58:26.682Z,14.43
2018-03-14T22:00:54.148Z,11.97
2018-03-14T22:03:21.598Z,15.33
2018-03-14T22:05:49.034Z,18.20
2018-03-14T22:08:16.528Z,15.50
2018-03-14T22:10:43.928Z,10.50
2018-03-14T22:13:11.832Z,11.40
2018-03-14T22:15:39.266Z,14.67
2018-03-14T22:18:06.720Z,16.73
2018-03-14T22:20:34.204Z,12.07
2018-03-14T22:23:01.635Z,15.07
2018-03-14T22:25:29.076Z,17.10
2018-03-14T22:27:57.279Z,16.10
2018-03-14T22:30:24.723Z,24.63
2018-03-14T22:32:52.151Z,15.50
2018-03-14T22:35:20.357Z,15.00
2018-03-14T22:37:47.783Z,18.07
2018-03-14T22:40:15.985Z,12.50
2018-03-14T22:42:43.468Z,13.30
2018-03-14T22:45:10.923Z,13.73
2018-03-14T22:47:38.376Z,14.93
2018-03-14T22:50:05.827Z,33.63
2018-03-14T22:52:33.330Z,39.00
2018-03-14T22:55:01.567Z,14.93
2018-03-14T22:57:29.004Z,19.50
2018-03-14T22:59:56.440Z,24.10
2018-03-14T23:02:23.985Z,27.07
2018-03-14T23:04:52.171Z,21.73
2018-03-14T23:07:19.606Z,15.03
2018-03-14T23:09:47.136Z,37.40
2018-03-14T23:12:14.675Z,33.60
2018-03-14T23:14:42.144Z,15.80
2018-03-14T23:17:10.038Z,22.90
2018-03-14T23:19:39.977Z,14.77
2018-03-14T23:22:07.551Z,16.90
2018-03-14T23:24:35.741Z,15.07
2018-03-14T23:27:03.283Z,15.20
2018-03-14T23:29:30.883Z,17.37
2018-03-14T23:31:58.339Z,15.57
2018-03-14T23:34:25.796Z,16.17
2018-03-14T23:36:53.260Z,14.80
2018-03-14T23:39:20.695Z,20.50
2018-03-14T23:41:48.140Z,13.10
2018-03-14T23:44:15.573Z,16.50
2018-03-14T23:46:44.232Z,14.90
2018-03-14T23:49:11.664Z,18.23
2018-03-14T23:51:39.113Z,17.70
2018-03-14T23:54:06.540Z,17.97
2018-03-14T23:56:33.995Z,14.20
2018-03-14T23:59:01.429Z,17.97
